| Date | Time | Temp. (oF) | Dew Point (oF) | Rel. Hum. (%) | Press. (in.) | Wind Dir. | Wind Speed (mph) | Hourly Rainfall (in.) |
|
|---|---|---|---|---|---|---|---|---|---|
| 1 | 07/21 | 00:00 | 74 | 66 | 77 | 30.05 | WSW | 0 | 0.00 |
| 2 | 07/20 | 23:00 | 76 | 66 | 72 | 30.03 | WSW | 1 | 0.00 |
| 3 | 07/20 | 22:00 | 81 | 63 | 55 | 30.02 | NW | 1 | 0.00 |
| 4 | 07/20 | 21:00 | 84 | 63 | 51 | 30.00 | NNW | 1 | 0.00 |
| 5 | 07/20 | 20:00 | 87 | 62 | 44 | 29.98 | NNW | 3 | 0.00 |
| 6 | 07/20 | 19:00 | 89 | 61 | 41 | 29.96 | NW | 3 | 0.00 |
| 7 | 07/20 | 18:00 | 89 | 59 | 38 | 29.96 | N | 6 | 0.00 |
| 8 | 07/20 | 17:00 | 91 | 60 | 36 | 29.96 | NNW | 3 | 0.00 |
| 9 | 07/20 | 16:00 | 91 | 59 | 35 | 29.96 | NW | 7 | 0.00 |
| 10 | 07/20 | 15:00 | 89 | 60 | 39 | 29.96 | WSW | 4 | 0.00 |
| 11 | 07/20 | 14:00 | 89 | 64 | 45 | 29.97 | NNW | 5 | 0.00 |
| 12 | 07/20 | 13:00 | 87 | 64 | 48 | 29.98 | NW | 8 | 0.00 |
| 13 | 07/20 | 12:00 | 85 | 65 | 53 | 29.98 | NNE | 8 | 0.00 |
| 14 | 07/20 | 11:00 | 82 | 67 | 61 | 29.98 | NW | 3 | 0.00 |
| 15 | 07/20 | 10:00 | 79 | 69 | 74 | 29.98 | WNW | 5 | 0.00 |
| 16 | 07/20 | 09:00 | 76 | 68 | 78 | 29.98 | NW | 4 | 0.00 |
| 17 | 07/20 | 08:00 | 73 | 70 | 92 | 29.96 | NW | 3 | 0.00 |
| 18 | 07/20 | 07:00 | 70 | 69 | 98 | 29.95 | NW | 3 | 0.00 |
| 19 | 07/20 | 06:00 | 69 | 67 | 95 | 29.93 | WNW | 0 | 0.00 |
| 20 | 07/20 | 05:00 | 70 | 68 | 95 | 29.91 | WNW | 3 | 0.00 |
| 21 | 07/20 | 04:00 | 71 | 68 | 93 | 29.89 | WNW | 2 | 0.00 |
| 22 | 07/20 | 03:00 | 72 | 69 | 91 | 29.88 | NW | 1 | 0.00 |
| 23 | 07/20 | 02:00 | 72 | 68 | 90 | 29.88 | WNW | 3 | 0.00 |
| 24 | 07/20 | 01:00 | 73 | 69 | 89 | 29.89 | W | 6 | 0.00 |